Terminal Aerodrome Forecast
Issued by NWS Duluth, MN

Home | Current Version | Previous Version | Text Only | Print | Product List | Glossary On
Versions: 1 2 3 4 5 6 7 8 9 10 11 12 13 14 15 16 17 18 19 20 21 22 23 24 25 26 27 28
092
FTUS43 KDLH 131503 AAD
TAFDLH
TAF AMD
KDLH 131503Z 1315/1412 08007KT 3SM -SN BR OVC015
     FM131900 04008KT P6SM VCSH OVC025
     FM132200 02007KT P6SM VCSH OVC035
     FM140000 36007KT P6SM BKN035
     FM140900 32006KT P6SM BKN015=

USA.gov is the U.S. government's official web portal to all federal, state and local government web resources and services.